sensor_id;sensor_type;location;lat;lon;timestamp;P1;durP1;ratioP1;P2;durP2;ratioP2
81170;SDS011;70644;44.818;20.478;2024-02-21T00:00:56;9.57;;;7.18;;
81170;SDS011;70644;44.818;20.478;2024-02-21T00:03:22;9.45;;;8.07;;
81170;SDS011;70644;44.818;20.478;2024-02-21T00:05:48;10.38;;;7.53;;
81170;SDS011;70644;44.818;20.478;2024-02-21T00:08:14;10.48;;;8.13;;
81170;SDS011;70644;44.818;20.478;2024-02-21T00:10:40;10.13;;;7.80;;
81170;SDS011;70644;44.818;20.478;2024-02-21T00:13:06;10.77;;;7.97;;
81170;SDS011;70644;44.818;20.478;2024-02-21T00:15:32;9.25;;;7.35;;
81170;SDS011;70644;44.818;20.478;2024-02-21T00:17:58;9.57;;;7.50;;
81170;SDS011;70644;44.818;20.478;2024-02-21T00:20:24;9.73;;;7.40;;
81170;SDS011;70644;44.818;20.478;2024-02-21T00:22:51;10.15;;;7.45;;
81170;SDS011;70644;44.818;20.478;2024-02-21T00:25:17;9.48;;;7.93;;
81170;SDS011;70644;44.818;20.478;2024-02-21T00:27:43;9.15;;;7.22;;
81170;SDS011;70644;44.818;20.478;2024-02-21T00:30:09;9.02;;;7.18;;
81170;SDS011;70644;44.818;20.478;2024-02-21T00:32:36;9.15;;;7.35;;
81170;SDS011;70644;44.818;20.478;2024-02-21T00:35:02;9.13;;;6.80;;
81170;SDS011;70644;44.818;20.478;2024-02-21T00:37:28;9.40;;;7.55;;
81170;SDS011;70644;44.818;20.478;2024-02-21T00:39:54;10.00;;;7.25;;
81170;SDS011;70644;44.818;20.478;2024-02-21T00:42:20;9.52;;;7.65;;
81170;SDS011;70644;44.818;20.478;2024-02-21T00:44:46;9.95;;;7.60;;
81170;SDS011;70644;44.818;20.478;2024-02-21T00:47:13;9.13;;;7.28;;
81170;SDS011;70644;44.818;20.478;2024-02-21T00:49:39;8.73;;;7.18;;
81170;SDS011;70644;44.818;20.478;2024-02-21T00:52:05;8.90;;;6.70;;
81170;SDS011;70644;44.818;20.478;2024-02-21T00:54:31;8.77;;;7.38;;
81170;SDS011;70644;44.818;20.478;2024-02-21T00:56:57;9.27;;;7.00;;
81170;SDS011;70644;44.818;20.478;2024-02-21T00:59:23;9.13;;;7.03;;
81170;SDS011;70644;44.818;20.478;2024-02-21T01:01:49;8.75;;;6.72;;
81170;SDS011;70644;44.818;20.478;2024-02-21T01:04:15;9.07;;;7.32;;
81170;SDS011;70644;44.818;20.478;2024-02-21T01:06:42;10.95;;;7.30;;
81170;SDS011;70644;44.818;20.478;2024-02-21T01:09:09;9.18;;;6.82;;
81170;SDS011;70644;44.818;20.478;2024-02-21T01:11:35;9.48;;;7.47;;
81170;SDS011;70644;44.818;20.478;2024-02-21T01:14:01;8.65;;;6.50;;
81170;SDS011;70644;44.818;20.478;2024-02-21T01:16:28;9.23;;;7.35;;
81170;SDS011;70644;44.818;20.478;2024-02-21T01:18:54;9.63;;;7.35;;
81170;SDS011;70644;44.818;20.478;2024-02-21T01:21:20;9.40;;;7.03;;
81170;SDS011;70644;44.818;20.478;2024-02-21T01:23:46;8.73;;;7.25;;
81170;SDS011;70644;44.818;20.478;2024-02-21T01:26:12;9.50;;;7.47;;
81170;SDS011;70644;44.818;20.478;2024-02-21T01:28:40;9.05;;;6.88;;
81170;SDS011;70644;44.818;20.478;2024-02-21T01:31:07;8.48;;;6.72;;
81170;SDS011;70644;44.818;20.478;2024-02-21T01:33:33;8.88;;;7.03;;
81170;SDS011;70644;44.818;20.478;2024-02-21T01:36:04;8.85;;;6.72;;
81170;SDS011;70644;44.818;20.478;2024-02-21T01:38:33;9.77;;;7.35;;
81170;SDS011;70644;44.818;20.478;2024-02-21T01:41:00;7.95;;;6.60;;
81170;SDS011;70644;44.818;20.478;2024-02-21T01:43:26;9.32;;;7.30;;
81170;SDS011;70644;44.818;20.478;2024-02-21T01:45:53;9.75;;;7.43;;
81170;SDS011;70644;44.818;20.478;2024-02-21T01:48:21;10.68;;;8.05;;
81170;SDS011;70644;44.818;20.478;2024-02-21T01:50:51;8.15;;;7.10;;
81170;SDS011;70644;44.818;20.478;2024-02-21T01:53:21;8.38;;;6.82;;
81170;SDS011;70644;44.818;20.478;2024-02-21T01:55:47;9.32;;;6.57;;
81170;SDS011;70644;44.818;20.478;2024-02-21T01:58:13;9.18;;;7.15;;
81170;SDS011;70644;44.818;20.478;2024-02-21T02:00:43;8.93;;;7.35;;
81170;SDS011;70644;44.818;20.478;2024-02-21T02:03:12;8.07;;;6.90;;
81170;SDS011;70644;44.818;20.478;2024-02-21T02:05:47;8.73;;;7.10;;
81170;SDS011;70644;44.818;20.478;2024-02-21T02:08:14;8.02;;;6.75;;
81170;SDS011;70644;44.818;20.478;2024-02-21T02:10:40;9.55;;;7.18;;
81170;SDS011;70644;44.818;20.478;2024-02-21T02:13:07;7.57;;;6.43;;
81170;SDS011;70644;44.818;20.478;2024-02-21T02:15:43;9.10;;;7.18;;
81170;SDS011;70644;44.818;20.478;2024-02-21T02:18:10;9.32;;;6.40;;
81170;SDS011;70644;44.818;20.478;2024-02-21T02:20:36;8.82;;;6.43;;
81170;SDS011;70644;44.818;20.478;2024-02-21T02:23:24;8.60;;;6.57;;
81170;SDS011;70644;44.818;20.478;2024-02-21T02:25:49;9.88;;;7.28;;
81170;SDS011;70644;44.818;20.478;2024-02-21T02:28:19;8.73;;;6.53;;
81170;SDS011;70644;44.818;20.478;2024-02-21T02:30:46;9.07;;;6.72;;
81170;SDS011;70644;44.818;20.478;2024-02-21T02:33:12;8.68;;;7.00;;
81170;SDS011;70644;44.818;20.478;2024-02-21T02:35:39;9.68;;;7.00;;
81170;SDS011;70644;44.818;20.478;2024-02-21T02:38:05;9.05;;;6.90;;
81170;SDS011;70644;44.818;20.478;2024-02-21T02:40:33;7.90;;;6.47;;
81170;SDS011;70644;44.818;20.478;2024-02-21T02:42:59;7.70;;;6.63;;
81170;SDS011;70644;44.818;20.478;2024-02-21T02:45:25;7.60;;;6.68;;
81170;SDS011;70644;44.818;20.478;2024-02-21T02:47:55;9.13;;;7.30;;
81170;SDS011;70644;44.818;20.478;2024-02-21T02:50:22;8.50;;;6.63;;
81170;SDS011;70644;44.818;20.478;2024-02-21T02:52:48;8.45;;;6.50;;
81170;SDS011;70644;44.818;20.478;2024-02-21T02:55:14;8.25;;;6.53;;
81170;SDS011;70644;44.818;20.478;2024-02-21T02:57:41;8.35;;;6.60;;
81170;SDS011;70644;44.818;20.478;2024-02-21T03:00:07;7.60;;;6.57;;
81170;SDS011;70644;44.818;20.478;2024-02-21T03:02:35;7.88;;;6.35;;
81170;SDS011;70644;44.818;20.478;2024-02-21T03:05:02;8.40;;;6.50;;
81170;SDS011;70644;44.818;20.478;2024-02-21T03:07:39;8.52;;;6.70;;
81170;SDS011;70644;44.818;20.478;2024-02-21T03:10:05;8.80;;;6.60;;
81170;SDS011;70644;44.818;20.478;2024-02-21T03:12:31;7.72;;;6.10;;
81170;SDS011;70644;44.818;20.478;2024-02-21T03:14:57;8.68;;;6.18;;
81170;SDS011;70644;44.818;20.478;2024-02-21T03:17:24;8.45;;;6.50;;
81170;SDS011;70644;44.818;20.478;2024-02-21T03:19:52;7.47;;;6.28;;
81170;SDS011;70644;44.818;20.478;2024-02-21T03:22:18;8.43;;;6.22;;
81170;SDS011;70644;44.818;20.478;2024-02-21T03:24:45;7.72;;;5.97;;
81170;SDS011;70644;44.818;20.478;2024-02-21T03:27:12;8.35;;;6.43;;
81170;SDS011;70644;44.818;20.478;2024-02-21T03:29:38;8.70;;;6.15;;
81170;SDS011;70644;44.818;20.478;2024-02-21T03:32:04;6.95;;;5.72;;
81170;SDS011;70644;44.818;20.478;2024-02-21T03:34:30;7.97;;;7.07;;
81170;SDS011;70644;44.818;20.478;2024-02-21T03:36:56;7.10;;;5.68;;
81170;SDS011;70644;44.818;20.478;2024-02-21T03:39:24;8.45;;;6.45;;
81170;SDS011;70644;44.818;20.478;2024-02-21T03:41:50;7.18;;;5.88;;
81170;SDS011;70644;44.818;20.478;2024-02-21T03:44:16;7.65;;;6.20;;
81170;SDS011;70644;44.818;20.478;2024-02-21T03:46:43;8.70;;;6.05;;
81170;SDS011;70644;44.818;20.478;2024-02-21T03:49:09;7.18;;;6.20;;
81170;SDS011;70644;44.818;20.478;2024-02-21T03:51:35;8.05;;;7.25;;
81170;SDS011;70644;44.818;20.478;2024-02-21T03:54:01;7.93;;;6.43;;
81170;SDS011;70644;44.818;20.478;2024-02-21T03:56:27;7.57;;;5.82;;
81170;SDS011;70644;44.818;20.478;2024-02-21T03:58:53;7.60;;;5.90;;
81170;SDS011;70644;44.818;20.478;2024-02-21T04:01:20;7.35;;;5.70;;
81170;SDS011;70644;44.818;20.478;2024-02-21T04:03:46;7.72;;;6.22;;
81170;SDS011;70644;44.818;20.478;2024-02-21T04:06:12;7.35;;;5.78;;
81170;SDS011;70644;44.818;20.478;2024-02-21T04:08:38;7.80;;;5.85;;
81170;SDS011;70644;44.818;20.478;2024-02-21T04:11:04;7.45;;;5.55;;
81170;SDS011;70644;44.818;20.478;2024-02-21T04:13:30;6.80;;;5.88;;
81170;SDS011;70644;44.818;20.478;2024-02-21T04:15:56;8.20;;;6.03;;
81170;SDS011;70644;44.818;20.478;2024-02-21T04:18:22;7.18;;;5.55;;
81170;SDS011;70644;44.818;20.478;2024-02-21T04:20:50;6.43;;;5.68;;
81170;SDS011;70644;44.818;20.478;2024-02-21T04:23:17;7.47;;;5.63;;
81170;SDS011;70644;44.818;20.478;2024-02-21T04:25:43;8.00;;;6.00;;
81170;SDS011;70644;44.818;20.478;2024-02-21T04:28:09;7.50;;;6.00;;
81170;SDS011;70644;44.818;20.478;2024-02-21T04:30:35;7.30;;;5.80;;
81170;SDS011;70644;44.818;20.478;2024-02-21T04:33:01;8.20;;;7.00;;
81170;SDS011;70644;44.818;20.478;2024-02-21T04:35:27;7.60;;;5.90;;
81170;SDS011;70644;44.818;20.478;2024-02-21T04:37:53;6.63;;;5.43;;
81170;SDS011;70644;44.818;20.478;2024-02-21T04:40:19;6.28;;;5.50;;
81170;SDS011;70644;44.818;20.478;2024-02-21T04:42:45;7.78;;;5.68;;
81170;SDS011;70644;44.818;20.478;2024-02-21T04:45:11;7.50;;;5.10;;
81170;SDS011;70644;44.818;20.478;2024-02-21T04:47:37;7.38;;;5.63;;
81170;SDS011;70644;44.818;20.478;2024-02-21T04:50:04;7.60;;;5.97;;
81170;SDS011;70644;44.818;20.478;2024-02-21T04:52:30;6.43;;;5.15;;
81170;SDS011;70644;44.818;20.478;2024-02-21T04:54:56;5.63;;;4.50;;
81170;SDS011;70644;44.818;20.478;2024-02-21T04:57:22;6.97;;;5.25;;
81170;SDS011;70644;44.818;20.478;2024-02-21T04:59:48;7.90;;;5.45;;
81170;SDS011;70644;44.818;20.478;2024-02-21T05:02:14;6.15;;;5.47;;
81170;SDS011;70644;44.818;20.478;2024-02-21T05:04:40;5.97;;;4.60;;
81170;SDS011;70644;44.818;20.478;2024-02-21T05:07:07;7.82;;;5.05;;
81170;SDS011;70644;44.818;20.478;2024-02-21T05:09:33;5.82;;;5.05;;
81170;SDS011;70644;44.818;20.478;2024-02-21T05:11:59;5.18;;;4.68;;
81170;SDS011;70644;44.818;20.478;2024-02-21T05:14:25;7.10;;;5.35;;
81170;SDS011;70644;44.818;20.478;2024-02-21T05:16:52;6.30;;;5.38;;
81170;SDS011;70644;44.818;20.478;2024-02-21T05:19:18;6.22;;;5.18;;
81170;SDS011;70644;44.818;20.478;2024-02-21T05:21:44;6.32;;;5.40;;
81170;SDS011;70644;44.818;20.478;2024-02-21T05:24:10;6.18;;;4.80;;
81170;SDS011;70644;44.818;20.478;2024-02-21T05:26:37;6.05;;;5.00;;
81170;SDS011;70644;44.818;20.478;2024-02-21T05:29:03;7.03;;;5.22;;
81170;SDS011;70644;44.818;20.478;2024-02-21T05:31:42;7.50;;;5.05;;
81170;SDS011;70644;44.818;20.478;2024-02-21T05:34:09;6.55;;;5.55;;
81170;SDS011;70644;44.818;20.478;2024-02-21T05:36:35;6.93;;;5.05;;
81170;SDS011;70644;44.818;20.478;2024-02-21T05:39:01;6.68;;;5.03;;
81170;SDS011;70644;44.818;20.478;2024-02-21T05:41:27;5.55;;;4.70;;
81170;SDS011;70644;44.818;20.478;2024-02-21T05:43:54;6.72;;;5.22;;
81170;SDS011;70644;44.818;20.478;2024-02-21T05:46:20;7.53;;;5.38;;
81170;SDS011;70644;44.818;20.478;2024-02-21T05:48:46;7.38;;;5.45;;
81170;SDS011;70644;44.818;20.478;2024-02-21T05:51:12;6.65;;;5.20;;
81170;SDS011;70644;44.818;20.478;2024-02-21T05:53:39;6.07;;;5.35;;
81170;SDS011;70644;44.818;20.478;2024-02-21T05:56:09;7.10;;;5.20;;
81170;SDS011;70644;44.818;20.478;2024-02-21T05:58:36;5.72;;;4.95;;
81170;SDS011;70644;44.818;20.478;2024-02-21T06:01:02;6.72;;;5.03;;
81170;SDS011;70644;44.818;20.478;2024-02-21T06:03:29;7.13;;;5.45;;
81170;SDS011;70644;44.818;20.478;2024-02-21T06:05:55;6.53;;;5.38;;
81170;SDS011;70644;44.818;20.478;2024-02-21T06:08:21;6.50;;;5.30;;
81170;SDS011;70644;44.818;20.478;2024-02-21T06:10:47;6.32;;;5.15;;
81170;SDS011;70644;44.818;20.478;2024-02-21T06:13:14;6.82;;;5.55;;
81170;SDS011;70644;44.818;20.478;2024-02-21T06:15:40;8.93;;;5.38;;
81170;SDS011;70644;44.818;20.478;2024-02-21T06:18:06;7.72;;;5.80;;
81170;SDS011;70644;44.818;20.478;2024-02-21T06:20:32;7.70;;;5.25;;
81170;SDS011;70644;44.818;20.478;2024-02-21T06:23:01;6.57;;;5.20;;
81170;SDS011;70644;44.818;20.478;2024-02-21T06:25:27;6.57;;;5.18;;
81170;SDS011;70644;44.818;20.478;2024-02-21T06:27:53;7.82;;;5.40;;
81170;SDS011;70644;44.818;20.478;2024-02-21T06:30:19;7.18;;;6.18;;
81170;SDS011;70644;44.818;20.478;2024-02-21T06:32:45;9.00;;;7.40;;
81170;SDS011;70644;44.818;20.478;2024-02-21T06:35:11;7.30;;;5.32;;
81170;SDS011;70644;44.818;20.478;2024-02-21T06:37:37;7.20;;;6.45;;
81170;SDS011;70644;44.818;20.478;2024-02-21T06:40:04;6.63;;;5.57;;
81170;SDS011;70644;44.818;20.478;2024-02-21T06:42:30;6.80;;;5.40;;
81170;SDS011;70644;44.818;20.478;2024-02-21T06:44:56;7.78;;;5.50;;
81170;SDS011;70644;44.818;20.478;2024-02-21T06:47:23;6.95;;;5.30;;
81170;SDS011;70644;44.818;20.478;2024-02-21T06:49:49;6.75;;;5.20;;
81170;SDS011;70644;44.818;20.478;2024-02-21T06:52:17;6.93;;;5.15;;
81170;SDS011;70644;44.818;20.478;2024-02-21T06:54:45;8.00;;;5.07;;
81170;SDS011;70644;44.818;20.478;2024-02-21T06:57:12;8.32;;;5.10;;
81170;SDS011;70644;44.818;20.478;2024-02-21T06:59:39;7.25;;;5.22;;
81170;SDS011;70644;44.818;20.478;2024-02-21T07:02:05;6.75;;;5.32;;
81170;SDS011;70644;44.818;20.478;2024-02-21T07:04:32;8.10;;;5.40;;
81170;SDS011;70644;44.818;20.478;2024-02-21T07:06:58;7.03;;;5.22;;
81170;SDS011;70644;44.818;20.478;2024-02-21T07:09:24;8.02;;;5.53;;
81170;SDS011;70644;44.818;20.478;2024-02-21T07:11:50;9.50;;;6.00;;
81170;SDS011;70644;44.818;20.478;2024-02-21T07:14:17;10.15;;;6.22;;
81170;SDS011;70644;44.818;20.478;2024-02-21T07:16:43;11.18;;;6.20;;
81170;SDS011;70644;44.818;20.478;2024-02-21T07:19:10;10.13;;;6.32;;
81170;SDS011;70644;44.818;20.478;2024-02-21T07:21:36;7.90;;;5.90;;
81170;SDS011;70644;44.818;20.478;2024-02-21T07:24:07;8.10;;;5.68;;
81170;SDS011;70644;44.818;20.478;2024-02-21T07:26:33;8.05;;;5.90;;
81170;SDS011;70644;44.818;20.478;2024-02-21T07:28:59;7.93;;;6.10;;
81170;SDS011;70644;44.818;20.478;2024-02-21T07:31:25;8.85;;;6.45;;
81170;SDS011;70644;44.818;20.478;2024-02-21T07:33:51;9.93;;;5.28;;
81170;SDS011;70644;44.818;20.478;2024-02-21T07:36:27;7.90;;;5.70;;
81170;SDS011;70644;44.818;20.478;2024-02-21T07:38:53;8.32;;;5.63;;
81170;SDS011;70644;44.818;20.478;2024-02-21T07:41:20;7.47;;;5.75;;
81170;SDS011;70644;44.818;20.478;2024-02-21T07:43:46;7.63;;;5.60;;
81170;SDS011;70644;44.818;20.478;2024-02-21T07:46:13;8.52;;;6.25;;
81170;SDS011;70644;44.818;20.478;2024-02-21T07:48:39;9.05;;;5.90;;
81170;SDS011;70644;44.818;20.478;2024-02-21T07:51:06;7.50;;;5.50;;
81170;SDS011;70644;44.818;20.478;2024-02-21T07:53:32;8.98;;;5.57;;
81170;SDS011;70644;44.818;20.478;2024-02-21T07:55:58;9.00;;;5.28;;
81170;SDS011;70644;44.818;20.478;2024-02-21T07:58:24;8.80;;;5.38;;
81170;SDS011;70644;44.818;20.478;2024-02-21T08:00:50;10.38;;;5.53;;
81170;SDS011;70644;44.818;20.478;2024-02-21T08:03:16;7.60;;;5.95;;
81170;SDS011;70644;44.818;20.478;2024-02-21T08:05:43;8.32;;;5.72;;
81170;SDS011;70644;44.818;20.478;2024-02-21T08:08:09;7.90;;;5.78;;
81170;SDS011;70644;44.818;20.478;2024-02-21T08:10:35;9.05;;;5.00;;
81170;SDS011;70644;44.818;20.478;2024-02-21T08:13:01;9.30;;;5.32;;
81170;SDS011;70644;44.818;20.478;2024-02-21T08:15:27;6.97;;;5.07;;
81170;SDS011;70644;44.818;20.478;2024-02-21T08:17:57;8.65;;;5.07;;
81170;SDS011;70644;44.818;20.478;2024-02-21T08:20:26;7.22;;;4.95;;
81170;SDS011;70644;44.818;20.478;2024-02-21T08:22:52;6.63;;;5.13;;
81170;SDS011;70644;44.818;20.478;2024-02-21T08:25:18;7.40;;;4.82;;
81170;SDS011;70644;44.818;20.478;2024-02-21T08:27:44;8.68;;;5.25;;
81170;SDS011;70644;44.818;20.478;2024-02-21T08:30:11;6.32;;;5.22;;
81170;SDS011;70644;44.818;20.478;2024-02-21T08:32:37;6.70;;;4.85;;
81170;SDS011;70644;44.818;20.478;2024-02-21T08:35:03;8.13;;;5.50;;
81170;SDS011;70644;44.818;20.478;2024-02-21T08:37:31;7.28;;;5.03;;
81170;SDS011;70644;44.818;20.478;2024-02-21T08:39:57;6.90;;;5.15;;
81170;SDS011;70644;44.818;20.478;2024-02-21T08:42:23;8.18;;;5.03;;
81170;SDS011;70644;44.818;20.478;2024-02-21T08:44:50;6.85;;;5.38;;
81170;SDS011;70644;44.818;20.478;2024-02-21T08:47:16;6.90;;;5.10;;
81170;SDS011;70644;44.818;20.478;2024-02-21T08:49:43;7.10;;;4.78;;
81170;SDS011;70644;44.818;20.478;2024-02-21T08:52:09;7.15;;;5.10;;
81170;SDS011;70644;44.818;20.478;2024-02-21T08:54:35;6.63;;;5.10;;
81170;SDS011;70644;44.818;20.478;2024-02-21T08:57:02;8.60;;;5.38;;
81170;SDS011;70644;44.818;20.478;2024-02-21T08:59:28;6.78;;;4.57;;
81170;SDS011;70644;44.818;20.478;2024-02-21T09:01:54;7.90;;;5.88;;
81170;SDS011;70644;44.818;20.478;2024-02-21T09:04:20;5.65;;;4.70;;
81170;SDS011;70644;44.818;20.478;2024-02-21T09:06:46;9.00;;;5.25;;
81170;SDS011;70644;44.818;20.478;2024-02-21T09:09:12;8.65;;;5.00;;
81170;SDS011;70644;44.818;20.478;2024-02-21T09:11:38;9.15;;;5.43;;
81170;SDS011;70644;44.818;20.478;2024-02-21T09:14:05;7.68;;;4.72;;
81170;SDS011;70644;44.818;20.478;2024-02-21T09:16:32;6.13;;;4.60;;
81170;SDS011;70644;44.818;20.478;2024-02-21T09:18:58;6.32;;;4.47;;
81170;SDS011;70644;44.818;20.478;2024-02-21T09:21:25;8.07;;;5.28;;
81170;SDS011;70644;44.818;20.478;2024-02-21T09:23:53;7.05;;;4.45;;
81170;SDS011;70644;44.818;20.478;2024-02-21T09:26:19;8.88;;;5.18;;
81170;SDS011;70644;44.818;20.478;2024-02-21T09:28:45;6.90;;;4.60;;
81170;SDS011;70644;44.818;20.478;2024-02-21T09:31:12;6.65;;;4.50;;
81170;SDS011;70644;44.818;20.478;2024-02-21T09:33:38;7.78;;;4.50;;
81170;SDS011;70644;44.818;20.478;2024-02-21T09:36:04;9.20;;;4.78;;
81170;SDS011;70644;44.818;20.478;2024-02-21T09:38:31;5.93;;;4.65;;
81170;SDS011;70644;44.818;20.478;2024-02-21T09:41:04;7.05;;;4.03;;
81170;SDS011;70644;44.818;20.478;2024-02-21T09:43:33;5.43;;;4.28;;
81170;SDS011;70644;44.818;20.478;2024-02-21T09:45:59;7.35;;;4.18;;
81170;SDS011;70644;44.818;20.478;2024-02-21T09:50:59;5.55;;;3.88;;
81170;SDS011;70644;44.818;20.478;2024-02-21T09:53:26;6.93;;;4.40;;
81170;SDS011;70644;44.818;20.478;2024-02-21T09:55:53;5.50;;;4.07;;
81170;SDS011;70644;44.818;20.478;2024-02-21T09:58:19;9.23;;;4.32;;
81170;SDS011;70644;44.818;20.478;2024-02-21T10:00:45;7.93;;;4.28;;
81170;SDS011;70644;44.818;20.478;2024-02-21T10:03:12;8.82;;;5.07;;
81170;SDS011;70644;44.818;20.478;2024-02-21T10:05:38;5.93;;;4.03;;
81170;SDS011;70644;44.818;20.478;2024-02-21T10:08:04;9.20;;;4.13;;
81170;SDS011;70644;44.818;20.478;2024-02-21T10:10:51;6.40;;;4.10;;
81170;SDS011;70644;44.818;20.478;2024-02-21T10:13:28;6.47;;;4.00;;
81170;SDS011;70644;44.818;20.478;2024-02-21T10:16:01;6.28;;;4.10;;
81170;SDS011;70644;44.818;20.478;2024-02-21T10:18:27;6.05;;;4.07;;
81170;SDS011;70644;44.818;20.478;2024-02-21T10:21:06;8.52;;;4.40;;
81170;SDS011;70644;44.818;20.478;2024-02-21T10:26:08;5.63;;;3.88;;
81170;SDS011;70644;44.818;20.478;2024-02-21T10:28:35;5.93;;;4.10;;
81170;SDS011;70644;44.818;20.478;2024-02-21T10:31:01;8.05;;;4.10;;
81170;SDS011;70644;44.818;20.478;2024-02-21T10:33:27;7.10;;;4.43;;
81170;SDS011;70644;44.818;20.478;2024-02-21T10:35:55;5.20;;;3.65;;
81170;SDS011;70644;44.818;20.478;2024-02-21T10:38:32;5.68;;;3.63;;
81170;SDS011;70644;44.818;20.478;2024-02-21T10:40:58;6.70;;;3.85;;
81170;SDS011;70644;44.818;20.478;2024-02-21T10:43:27;5.07;;;3.80;;
81170;SDS011;70644;44.818;20.478;2024-02-21T10:45:54;5.07;;;3.63;;
81170;SDS011;70644;44.818;20.478;2024-02-21T10:48:22;5.57;;;3.47;;
81170;SDS011;70644;44.818;20.478;2024-02-21T10:50:53;5.85;;;3.53;;
81170;SDS011;70644;44.818;20.478;2024-02-21T10:56:15;7.38;;;3.80;;
81170;SDS011;70644;44.818;20.478;2024-02-21T10:58:42;5.78;;;3.80;;
81170;SDS011;70644;44.818;20.478;2024-02-21T11:01:10;6.25;;;3.78;;
81170;SDS011;70644;44.818;20.478;2024-02-21T11:03:38;7.13;;;3.85;;
81170;SDS011;70644;44.818;20.478;2024-02-21T11:06:04;5.95;;;3.78;;
81170;SDS011;70644;44.818;20.478;2024-02-21T11:08:30;7.32;;;3.42;;
81170;SDS011;70644;44.818;20.478;2024-02-21T11:10:57;7.65;;;3.28;;
81170;SDS011;70644;44.818;20.478;2024-02-21T11:13:30;7.40;;;3.97;;
81170;SDS011;70644;44.818;20.478;2024-02-21T11:16:09;5.60;;;3.78;;
81170;SDS011;70644;44.818;20.478;2024-02-21T11:18:36;4.82;;;3.58;;
81170;SDS011;70644;44.818;20.478;2024-02-21T11:21:02;5.25;;;3.58;;
81170;SDS011;70644;44.818;20.478;2024-02-21T11:23:30;5.60;;;3.70;;
81170;SDS011;70644;44.818;20.478;2024-02-21T11:26:05;6.72;;;3.88;;
81170;SDS011;70644;44.818;20.478;2024-02-21T11:28:32;7.18;;;4.10;;
81170;SDS011;70644;44.818;20.478;2024-02-21T11:31:08;6.60;;;4.25;;
81170;SDS011;70644;44.818;20.478;2024-02-21T11:33:34;7.30;;;3.90;;
81170;SDS011;70644;44.818;20.478;2024-02-21T11:36:01;6.43;;;3.67;;
81170;SDS011;70644;44.818;20.478;2024-02-21T11:38:29;5.40;;;3.75;;
81170;SDS011;70644;44.818;20.478;2024-02-21T11:40:55;6.35;;;3.70;;
81170;SDS011;70644;44.818;20.478;2024-02-21T11:43:21;5.53;;;3.60;;
81170;SDS011;70644;44.818;20.478;2024-02-21T11:45:48;6.93;;;3.88;;
81170;SDS011;70644;44.818;20.478;2024-02-21T11:48:14;5.78;;;3.50;;
81170;SDS011;70644;44.818;20.478;2024-02-21T11:50:41;5.75;;;3.38;;
81170;SDS011;70644;44.818;20.478;2024-02-21T11:53:07;7.50;;;3.80;;
81170;SDS011;70644;44.818;20.478;2024-02-21T11:55:34;6.50;;;3.67;;
81170;SDS011;70644;44.818;20.478;2024-02-21T11:58:00;6.05;;;3.70;;
81170;SDS011;70644;44.818;20.478;2024-02-21T12:00:27;6.72;;;3.42;;
81170;SDS011;70644;44.818;20.478;2024-02-21T12:02:53;7.55;;;3.42;;
81170;SDS011;70644;44.818;20.478;2024-02-21T12:05:25;6.35;;;3.42;;
81170;SDS011;70644;44.818;20.478;2024-02-21T12:07:54;5.00;;;3.30;;
81170;SDS011;70644;44.818;20.478;2024-02-21T12:10:20;7.05;;;3.60;;
81170;SDS011;70644;44.818;20.478;2024-02-21T12:12:46;5.43;;;3.45;;
81170;SDS011;70644;44.818;20.478;2024-02-21T12:15:12;5.57;;;3.00;;
81170;SDS011;70644;44.818;20.478;2024-02-21T12:17:41;4.70;;;3.25;;
81170;SDS011;70644;44.818;20.478;2024-02-21T12:20:08;6.28;;;3.10;;
81170;SDS011;70644;44.818;20.478;2024-02-21T12:22:43;5.53;;;3.42;;
81170;SDS011;70644;44.818;20.478;2024-02-21T12:25:18;6.43;;;3.20;;
81170;SDS011;70644;44.818;20.478;2024-02-21T12:27:45;5.28;;;3.05;;
81170;SDS011;70644;44.818;20.478;2024-02-21T12:30:11;4.72;;;3.15;;
81170;SDS011;70644;44.818;20.478;2024-02-21T12:32:38;4.72;;;2.92;;
81170;SDS011;70644;44.818;20.478;2024-02-21T12:35:04;5.07;;;3.60;;
81170;SDS011;70644;44.818;20.478;2024-02-21T12:37:30;6.50;;;3.30;;
81170;SDS011;70644;44.818;20.478;2024-02-21T12:39:57;5.82;;;2.85;;
81170;SDS011;70644;44.818;20.478;2024-02-21T12:42:24;5.07;;;3.22;;
81170;SDS011;70644;44.818;20.478;2024-02-21T12:44:51;5.35;;;3.47;;
81170;SDS011;70644;44.818;20.478;2024-02-21T12:47:17;6.35;;;3.20;;
81170;SDS011;70644;44.818;20.478;2024-02-21T12:49:45;4.72;;;2.90;;
81170;SDS011;70644;44.818;20.478;2024-02-21T12:52:11;4.20;;;2.88;;
81170;SDS011;70644;44.818;20.478;2024-02-21T12:54:38;5.35;;;3.30;;
81170;SDS011;70644;44.818;20.478;2024-02-21T12:57:04;4.97;;;2.80;;
81170;SDS011;70644;44.818;20.478;2024-02-21T12:59:30;4.78;;;3.15;;
81170;SDS011;70644;44.818;20.478;2024-02-21T13:01:56;5.72;;;3.05;;
81170;SDS011;70644;44.818;20.478;2024-02-21T13:04:22;4.95;;;3.00;;
81170;SDS011;70644;44.818;20.478;2024-02-21T13:06:49;5.10;;;2.97;;
81170;SDS011;70644;44.818;20.478;2024-02-21T13:09:15;4.75;;;2.72;;
81170;SDS011;70644;44.818;20.478;2024-02-21T13:11:41;5.18;;;2.90;;
81170;SDS011;70644;44.818;20.478;2024-02-21T13:14:09;5.22;;;3.13;;
81170;SDS011;70644;44.818;20.478;2024-02-21T13:16:35;4.97;;;2.80;;
81170;SDS011;70644;44.818;20.478;2024-02-21T13:19:04;5.03;;;2.88;;
81170;SDS011;70644;44.818;20.478;2024-02-21T13:21:30;4.75;;;3.42;;
81170;SDS011;70644;44.818;20.478;2024-02-21T13:23:57;9.73;;;2.92;;
81170;SDS011;70644;44.818;20.478;2024-02-21T13:26:23;7.00;;;3.13;;
81170;SDS011;70644;44.818;20.478;2024-02-21T13:28:49;6.03;;;3.08;;
81170;SDS011;70644;44.818;20.478;2024-02-21T13:31:15;5.78;;;3.00;;
81170;SDS011;70644;44.818;20.478;2024-02-21T13:33:44;5.55;;;3.22;;
81170;SDS011;70644;44.818;20.478;2024-02-21T13:36:10;6.97;;;3.30;;
81170;SDS011;70644;44.818;20.478;2024-02-21T13:38:36;5.43;;;3.00;;
81170;SDS011;70644;44.818;20.478;2024-02-21T13:41:04;5.90;;;3.22;;
81170;SDS011;70644;44.818;20.478;2024-02-21T13:43:31;6.35;;;3.30;;
81170;SDS011;70644;44.818;20.478;2024-02-21T13:46:02;6.07;;;3.17;;
81170;SDS011;70644;44.818;20.478;2024-02-21T13:48:30;5.30;;;2.72;;
81170;SDS011;70644;44.818;20.478;2024-02-21T13:50:56;5.05;;;3.25;;
81170;SDS011;70644;44.818;20.478;2024-02-21T13:53:22;6.43;;;3.20;;
81170;SDS011;70644;44.818;20.478;2024-02-21T13:55:48;6.40;;;3.88;;
81170;SDS011;70644;44.818;20.478;2024-02-21T13:58:15;7.22;;;3.80;;
81170;SDS011;70644;44.818;20.478;2024-02-21T14:00:42;6.78;;;3.75;;
81170;SDS011;70644;44.818;20.478;2024-02-21T14:03:08;7.35;;;3.85;;
81170;SDS011;70644;44.818;20.478;2024-02-21T14:05:35;5.32;;;3.55;;
81170;SDS011;70644;44.818;20.478;2024-02-21T14:08:01;7.05;;;3.42;;
81170;SDS011;70644;44.818;20.478;2024-02-21T14:10:27;6.10;;;4.13;;
81170;SDS011;70644;44.818;20.478;2024-02-21T14:12:53;7.22;;;4.30;;
81170;SDS011;70644;44.818;20.478;2024-02-21T14:15:20;6.35;;;3.58;;
81170;SDS011;70644;44.818;20.478;2024-02-21T14:17:46;7.95;;;3.50;;
81170;SDS011;70644;44.818;20.478;2024-02-21T14:20:12;8.65;;;3.70;;
81170;SDS011;70644;44.818;20.478;2024-02-21T14:22:42;7.10;;;4.00;;
81170;SDS011;70644;44.818;20.478;2024-02-21T14:25:08;5.57;;;3.60;;
81170;SDS011;70644;44.818;20.478;2024-02-21T14:27:34;5.85;;;3.70;;
81170;SDS011;70644;44.818;20.478;2024-02-21T14:30:04;7.10;;;3.90;;
81170;SDS011;70644;44.818;20.478;2024-02-21T14:32:30;6.65;;;3.75;;
81170;SDS011;70644;44.818;20.478;2024-02-21T14:34:56;6.68;;;3.83;;
81170;SDS011;70644;44.818;20.478;2024-02-21T14:37:22;9.18;;;3.67;;
81170;SDS011;70644;44.818;20.478;2024-02-21T14:39:48;7.25;;;4.38;;